createdAt,value
2018-11-14T00:02:09.135Z,6.38
2018-11-14T00:04:36.035Z,6.08
2018-11-14T00:07:02.911Z,5.83
2018-11-14T00:09:29.822Z,5.86
2018-11-14T00:11:57.531Z,5.32
2018-11-14T00:14:24.406Z,5.60
2018-11-14T00:16:51.304Z,5.67
2018-11-14T00:19:18.253Z,5.68
2018-11-14T00:21:45.455Z,5.52
2018-11-14T00:24:11.949Z,5.51
2018-11-14T00:26:38.867Z,5.49
2018-11-14T00:29:05.752Z,5.41
2018-11-14T00:31:32.611Z,5.41
2018-11-14T00:33:59.483Z,5.46
2018-11-14T00:36:27.386Z,5.67
2018-11-14T00:38:54.266Z,5.51
2018-11-14T00:41:21.124Z,5.57
2018-11-14T00:43:48.000Z,5.57
2018-11-14T00:46:14.864Z,5.46
2018-11-14T00:48:41.723Z,5.44
2018-11-14T00:51:08.595Z,5.21
2018-11-14T00:53:35.467Z,4.96
2018-11-14T00:56:02.331Z,5.12
2018-11-14T00:58:29.204Z,5.09
2018-11-14T01:00:56.100Z,4.94
2018-11-14T01:03:22.975Z,4.84
2018-11-14T01:05:49.858Z,5.29
2018-11-14T01:08:16.720Z,5.21
2018-11-14T01:10:43.587Z,4.66
2018-11-14T01:13:10.459Z,5.41
2018-11-14T01:15:37.320Z,4.98
2018-11-14T01:18:04.787Z,5.08
2018-11-14T01:20:31.299Z,5.05
2018-11-14T01:22:58.163Z,5.19
2018-11-14T01:25:25.036Z,5.31
2018-11-14T01:27:51.908Z,5.40
2018-11-14T01:30:20.083Z,5.32
2018-11-14T01:32:47.460Z,5.28
2018-11-14T01:35:15.006Z,5.16
2018-11-14T01:37:41.891Z,4.93
2018-11-14T01:40:10.976Z,4.84
2018-11-14T01:42:37.850Z,5.23
2018-11-14T01:45:07.196Z,4.74
2018-11-14T01:47:34.129Z,4.69
2018-11-14T01:50:01.429Z,4.56
2018-11-14T01:52:28.333Z,4.39
2018-11-14T01:54:55.232Z,4.43
2018-11-14T01:57:22.107Z,5.03
2018-11-14T01:59:49.000Z,4.47
2018-11-14T02:02:15.873Z,4.38
2018-11-14T02:04:42.738Z,4.30
2018-11-14T02:07:09.608Z,4.47
2018-11-14T02:09:36.499Z,4.52
2018-11-14T02:12:03.761Z,4.30
2018-11-14T02:14:30.663Z,4.25
2018-11-14T02:16:57.541Z,4.16
2018-11-14T02:19:24.403Z,4.21
2018-11-14T02:21:51.345Z,4.23
2018-11-14T02:24:18.205Z,4.27
2018-11-14T02:26:45.072Z,4.08
2018-11-14T02:29:11.949Z,4.01
2018-11-14T02:31:38.827Z,4.27
2018-11-14T02:34:05.784Z,4.35
2018-11-14T02:36:32.647Z,4.70
2018-11-14T02:38:59.523Z,4.44
2018-11-14T02:41:26.386Z,4.55
2018-11-14T02:43:53.275Z,4.24
2018-11-14T02:46:20.137Z,3.94
2018-11-14T02:48:47.000Z,4.00
2018-11-14T02:51:29.582Z,3.97
2018-11-14T02:53:56.580Z,4.13
2018-11-14T02:56:23.552Z,4.09
2018-11-14T02:58:50.442Z,4.05
2018-11-14T03:01:17.299Z,4.04
2018-11-14T03:03:44.177Z,4.15
2018-11-14T03:06:11.044Z,4.24
2018-11-14T03:08:38.204Z,4.11
2018-11-14T03:11:05.144Z,3.99
2018-11-14T03:13:32.007Z,4.12
2018-11-14T03:15:58.897Z,4.16
2018-11-14T03:18:25.759Z,4.29
2018-11-14T03:20:52.617Z,4.10
2018-11-14T03:23:19.474Z,3.67
2018-11-14T03:25:46.348Z,3.53
2018-11-14T03:28:13.204Z,3.65
2018-11-14T03:30:40.084Z,3.40
2018-11-14T03:33:06.949Z,3.28
2018-11-14T03:35:39.550Z,3.52
2018-11-14T03:38:06.412Z,3.53
2018-11-14T03:40:33.275Z,3.39
2018-11-14T03:43:00.138Z,3.83
2018-11-14T03:45:26.999Z,3.47
2018-11-14T03:47:53.879Z,3.51
2018-11-14T03:50:20.748Z,3.52
2018-11-14T03:52:47.658Z,3.43
2018-11-14T03:55:14.525Z,3.34
2018-11-14T03:57:41.397Z,3.58
2018-11-14T04:00:12.354Z,3.57
2018-11-14T04:02:39.219Z,3.50
2018-11-14T04:05:06.336Z,3.67
2018-11-14T04:07:33.367Z,3.74
2018-11-14T04:10:00.232Z,3.75
2018-11-14T04:12:27.126Z,3.76
2018-11-14T04:14:53.983Z,3.91
2018-11-14T04:17:20.842Z,4.04
2018-11-14T04:19:47.715Z,3.96
2018-11-14T04:22:14.600Z,4.03
2018-11-14T04:24:41.500Z,4.07
2018-11-14T04:27:08.481Z,4.25
2018-11-14T04:29:35.343Z,4.20
2018-11-14T04:32:03.316Z,4.16
2018-11-14T04:34:30.196Z,4.46
2018-11-14T04:36:57.139Z,4.30
2018-11-14T04:39:24.012Z,4.19
2018-11-14T04:41:51.008Z,4.23
2018-11-14T04:44:17.875Z,4.22
2018-11-14T04:46:44.729Z,4.29
2018-11-14T04:49:11.599Z,4.35
2018-11-14T04:51:38.469Z,4.30
2018-11-14T04:54:05.323Z,4.30
2018-11-14T04:56:32.178Z,4.34
2018-11-14T04:58:59.068Z,4.42
2018-11-14T05:01:25.943Z,4.37
2018-11-14T05:03:52.807Z,4.55
2018-11-14T05:06:19.669Z,4.84
2018-11-14T05:08:46.535Z,4.60
2018-11-14T05:11:13.412Z,4.59
2018-11-14T05:13:40.280Z,4.62
2018-11-14T05:16:07.138Z,4.90
2018-11-14T05:18:34.045Z,4.92
2018-11-14T05:21:00.895Z,4.53
2018-11-14T05:23:28.224Z,4.39
2018-11-14T05:25:55.095Z,4.27
2018-11-14T05:28:21.999Z,4.31
2018-11-14T05:30:48.861Z,4.22
2018-11-14T05:33:15.752Z,4.05
2018-11-14T05:35:42.612Z,3.99
2018-11-14T05:38:09.487Z,4.12
2018-11-14T05:40:36.359Z,3.94
2018-11-14T05:43:03.309Z,3.98
2018-11-14T05:45:30.307Z,3.67
2018-11-14T05:47:57.063Z,3.34
2018-11-14T05:50:24.066Z,3.07
2018-11-14T05:52:50.980Z,3.00
2018-11-14T05:55:17.891Z,2.82
2018-11-14T05:57:44.926Z,2.61
2018-11-14T06:00:16.300Z,2.80
2018-11-14T06:02:43.863Z,2.90
2018-11-14T06:05:10.723Z,2.91
2018-11-14T06:07:37.990Z,2.93
2018-11-14T06:10:05.734Z,2.97
2018-11-14T06:12:32.601Z,2.85
2018-11-14T06:14:59.455Z,2.73
2018-11-14T06:17:26.347Z,2.61
2018-11-14T06:19:53.215Z,2.57
2018-11-14T06:22:20.082Z,2.45
2018-11-14T06:24:46.979Z,2.49
2018-11-14T06:27:13.839Z,2.45
2018-11-14T06:29:40.786Z,2.36
2018-11-14T06:32:07.844Z,2.46
2018-11-14T06:34:34.691Z,2.56
2018-11-14T06:37:01.572Z,2.72
2018-11-14T06:39:28.430Z,2.61
2018-11-14T06:41:55.315Z,2.66
2018-11-14T06:44:22.204Z,2.85
2018-11-14T06:46:49.075Z,2.81
2018-11-14T06:49:15.939Z,3.10
2018-11-14T06:51:42.828Z,2.92
2018-11-14T06:54:09.932Z,2.83
2018-11-14T06:56:36.799Z,3.25
2018-11-14T06:59:03.863Z,3.08
2018-11-14T07:01:30.576Z,2.82
2018-11-14T07:03:57.596Z,2.67
2018-11-14T07:06:24.611Z,2.39
2018-11-14T07:08:51.491Z,2.50
2018-11-14T07:11:18.366Z,2.69
2018-11-14T07:13:45.292Z,2.58
2018-11-14T07:16:12.132Z,2.65
2018-11-14T07:18:39.010Z,2.59
2018-11-14T07:21:05.915Z,2.65
2018-11-14T07:23:32.841Z,2.51
2018-11-14T07:25:59.666Z,2.71
2018-11-14T07:28:26.535Z,2.68
2018-11-14T07:30:53.391Z,2.81
2018-11-14T07:33:20.262Z,2.77
2018-11-14T07:35:47.139Z,3.01
2018-11-14T07:38:35.528Z,2.97
2018-11-14T07:41:03.559Z,3.06
2018-11-14T07:43:30.859Z,3.24
2018-11-14T07:45:57.811Z,3.30
2018-11-14T07:48:24.712Z,3.17
2018-11-14T07:50:51.610Z,3.08
2018-11-14T07:53:18.769Z,3.14
2018-11-14T07:55:45.648Z,3.16
2018-11-14T07:58:12.516Z,3.25
2018-11-14T08:00:39.378Z,3.40
2018-11-14T08:03:06.259Z,3.42
2018-11-14T08:05:33.141Z,3.63
2018-11-14T08:08:00.132Z,3.73
2018-11-14T08:10:26.900Z,3.82
2018-11-14T08:12:53.786Z,3.75
2018-11-14T08:15:20.655Z,3.78
2018-11-14T08:17:47.515Z,3.80
2018-11-14T08:20:14.419Z,3.82
2018-11-14T08:22:41.668Z,3.96
2018-11-14T08:25:08.556Z,4.02
2018-11-14T08:27:35.815Z,4.12
2018-11-14T08:30:02.983Z,4.24
2018-11-14T08:32:29.854Z,4.40
2018-11-14T08:34:56.707Z,4.42
2018-11-14T08:37:23.611Z,4.32
2018-11-14T08:39:50.499Z,4.43
2018-11-14T08:42:17.363Z,4.55
2018-11-14T08:44:44.270Z,4.71
2018-11-14T08:47:11.136Z,4.69
2018-11-14T08:49:37.991Z,4.90
2018-11-14T08:52:04.872Z,5.03
2018-11-14T08:54:31.736Z,4.92
2018-11-14T08:56:58.594Z,5.16
2018-11-14T08:59:25.479Z,5.13
2018-11-14T09:01:52.335Z,5.34
2018-11-14T09:04:19.191Z,5.24
2018-11-14T09:06:46.789Z,5.43
2018-11-14T09:09:13.663Z,5.57
2018-11-14T09:11:40.524Z,5.43
2018-11-14T09:14:07.409Z,5.35
2018-11-14T09:16:34.335Z,5.49
2018-11-14T09:19:01.219Z,5.50
2018-11-14T09:21:28.077Z,5.52
2018-11-14T09:23:54.999Z,5.58
2018-11-14T09:26:21.827Z,5.77
2018-11-14T09:28:48.711Z,5.81
2018-11-14T09:31:15.591Z,5.77
2018-11-14T09:33:42.462Z,5.99
2018-11-14T09:36:09.332Z,6.34
2018-11-14T09:38:36.203Z,6.64
2018-11-14T09:41:03.589Z,6.62
2018-11-14T09:43:30.435Z,6.80
2018-11-14T09:45:57.300Z,7.13
2018-11-14T09:48:24.244Z,6.96
2018-11-14T09:50:51.061Z,6.93
2018-11-14T09:53:18.137Z,7.04
2018-11-14T09:55:46.163Z,7.09
2018-11-14T09:58:13.048Z,7.14
2018-11-14T10:00:39.965Z,7.03
2018-11-14T10:03:11.840Z,7.18
2018-11-14T10:05:38.797Z,7.42
2018-11-14T10:08:05.620Z,7.62
2018-11-14T10:10:32.469Z,7.50
2018-11-14T10:12:59.347Z,7.65
2018-11-14T10:15:26.275Z,7.66
2018-11-14T10:17:53.213Z,7.80
2018-11-14T10:20:21.391Z,7.83
2018-11-14T10:22:48.318Z,7.85
2018-11-14T10:25:15.791Z,7.71
2018-11-14T10:27:44.295Z,7.84
2018-11-14T10:30:16.556Z,8.04
2018-11-14T10:32:44.112Z,7.86
2018-11-14T10:35:11.159Z,7.87
2018-11-14T10:37:38.404Z,7.96
2018-11-14T10:40:06.901Z,7.96
2018-11-14T10:42:33.764Z,8.08
2018-11-14T10:45:00.648Z,8.22
2018-11-14T10:47:27.570Z,8.21
2018-11-14T10:49:54.507Z,8.45
2018-11-14T10:52:21.388Z,8.72
2018-11-14T10:54:48.260Z,9.00
2018-11-14T10:57:15.124Z,8.83
2018-11-14T10:59:42.020Z,8.74
2018-11-14T11:02:14.627Z,8.60
2018-11-14T11:04:47.188Z,8.29
2018-11-14T11:07:19.837Z,8.42
2018-11-14T11:09:52.448Z,8.72
2018-11-14T11:12:25.063Z,8.75
2018-11-14T11:14:57.666Z,8.77
2018-11-14T11:17:45.096Z,8.81
2018-11-14T11:20:11.995Z,8.84
2018-11-14T11:22:38.874Z,8.87
2018-11-14T11:25:05.877Z,8.73
2018-11-14T11:27:32.751Z,8.92
2018-11-14T11:29:59.611Z,9.19
2018-11-14T11:32:26.477Z,9.36
2018-11-14T11:34:53.389Z,9.39
2018-11-14T11:37:22.536Z,9.22
2018-11-14T11:39:58.318Z,9.38
2018-11-14T11:42:25.284Z,9.49
2018-11-14T11:44:54.246Z,9.46
2018-11-14T11:47:21.282Z,9.70
2018-11-14T11:49:48.293Z,9.81
2018-11-14T11:52:16.289Z,9.90
2018-11-14T11:54:48.894Z,9.91
2018-11-14T11:57:16.876Z,9.74
2018-11-14T11:59:51.979Z,9.65
2018-11-14T12:02:19.948Z,9.25
2018-11-14T12:04:47.840Z,9.49
2018-11-14T12:07:14.813Z,9.27
2018-11-14T12:09:43.695Z,9.01
2018-11-14T12:12:16.108Z,8.83
2018-11-14T12:14:43.013Z,8.75
2018-11-14T12:17:09.911Z,8.76
2018-11-14T12:19:36.936Z,8.81
2018-11-14T12:22:03.851Z,8.84
2018-11-14T12:24:30.807Z,8.60
2018-11-14T12:26:57.695Z,8.73
2018-11-14T12:29:24.542Z,8.83
2018-11-14T12:31:51.455Z,8.84
2018-11-14T12:34:18.317Z,8.58
2018-11-14T12:36:45.204Z,8.72
2018-11-14T12:39:12.109Z,8.59
2018-11-14T12:41:39.041Z,8.60
2018-11-14T12:44:05.923Z,8.67
2018-11-14T12:46:32.792Z,8.70
2018-11-14T12:48:59.715Z,8.75
2018-11-14T12:51:26.597Z,8.87
2018-11-14T12:53:53.546Z,8.83
2018-11-14T12:56:20.432Z,8.84
2018-11-14T12:58:47.472Z,8.87
2018-11-14T13:01:14.355Z,8.84
2018-11-14T13:03:50.594Z,8.88
2018-11-14T13:06:17.474Z,8.69
2018-11-14T13:08:44.360Z,8.69
2018-11-14T13:11:11.256Z,8.67
2018-11-14T13:13:44.391Z,8.72
2018-11-14T13:16:11.299Z,8.55
2018-11-14T13:18:38.161Z,8.66
2018-11-14T13:21:05.304Z,8.75
2018-11-14T13:23:32.178Z,8.72
2018-11-14T13:25:59.061Z,8.64
2018-11-14T13:28:25.940Z,8.45
2018-11-14T13:30:52.802Z,8.54
2018-11-14T13:33:19.681Z,8.58
2018-11-14T13:35:48.575Z,8.41
2018-11-14T13:38:15.471Z,8.36
2018-11-14T13:40:42.387Z,8.44
2018-11-14T13:43:09.368Z,8.48
2018-11-14T13:45:36.153Z,8.56
2018-11-14T13:48:03.352Z,8.54
2018-11-14T13:50:38.255Z,8.45
2018-11-14T13:53:04.968Z,8.40
2018-11-14T13:55:31.844Z,8.35
2018-11-14T13:58:00.743Z,8.14
2018-11-14T14:00:27.636Z,8.16
2018-11-14T14:02:54.575Z,8.20
2018-11-14T14:05:22.819Z,8.26
2018-11-14T14:07:49.783Z,8.19
2018-11-14T14:10:17.068Z,8.16
2018-11-14T14:12:45.223Z,8.13
2018-11-14T14:15:15.154Z,8.18
2018-11-14T14:17:43.096Z,8.09
2018-11-14T14:20:11.020Z,8.08
2018-11-14T14:22:38.092Z,8.22
2018-11-14T14:25:06.297Z,8.24
2018-11-14T14:27:33.171Z,8.04
2018-11-14T14:30:00.137Z,8.10
2018-11-14T14:32:27.000Z,7.98
2018-11-14T14:34:53.895Z,7.92
2018-11-14T14:37:20.834Z,7.76
2018-11-14T14:39:47.754Z,7.89
2018-11-14T14:42:14.735Z,7.94
2018-11-14T14:44:41.665Z,7.90
2018-11-14T14:47:08.591Z,7.89
2018-11-14T14:49:35.531Z,7.73
2018-11-14T14:52:02.465Z,7.77
2018-11-14T14:54:29.366Z,7.85
2018-11-14T14:56:56.252Z,7.90
2018-11-14T14:59:23.268Z,7.79
2018-11-14T15:01:50.310Z,7.74
2018-11-14T15:04:18.453Z,7.86
2018-11-14T15:06:46.992Z,7.96
2018-11-14T15:09:14.367Z,7.93
2018-11-14T15:11:41.838Z,7.96
2018-11-14T15:14:08.967Z,7.88
2018-11-14T15:16:38.435Z,7.90
2018-11-14T15:19:08.471Z,7.88
2018-11-14T15:21:35.523Z,7.73
2018-11-14T15:24:02.712Z,7.77
2018-11-14T15:26:36.602Z,7.86
2018-11-14T15:29:07.153Z,7.91
2018-11-14T15:31:34.019Z,7.81
2018-11-14T15:34:00.908Z,7.80
2018-11-14T15:36:27.802Z,7.86
2018-11-14T15:38:54.680Z,7.86
2018-11-14T15:41:21.545Z,7.71
2018-11-14T15:43:48.468Z,7.61
2018-11-14T15:46:15.331Z,7.55
2018-11-14T15:48:43.291Z,7.66
2018-11-14T15:51:10.162Z,7.65
2018-11-14T15:53:37.052Z,7.70
2018-11-14T15:56:04.004Z,7.57
2018-11-14T15:58:30.879Z,7.58
2018-11-14T16:00:57.776Z,7.60
2018-11-14T16:03:24.739Z,7.64
2018-11-14T16:05:51.639Z,7.78
2018-11-14T16:08:18.524Z,7.68
2018-11-14T16:10:45.408Z,7.76
2018-11-14T16:13:12.565Z,7.56
2018-11-14T16:15:39.448Z,7.54
2018-11-14T16:18:06.369Z,7.42
2018-11-14T16:20:33.201Z,7.43
2018-11-14T16:23:00.235Z,7.55
2018-11-14T16:25:27.592Z,7.44
2018-11-14T16:27:55.994Z,7.29
2018-11-14T16:30:25.138Z,7.30
2018-11-14T16:32:53.423Z,7.40
2018-11-14T16:35:20.298Z,7.37
2018-11-14T16:37:47.160Z,7.33
2018-11-14T16:40:16.378Z,7.28
2018-11-14T16:42:43.288Z,7.22
2018-11-14T16:45:10.755Z,7.15
2018-11-14T16:47:37.980Z,7.20
2018-11-14T16:50:04.944Z,7.34
2018-11-14T16:52:31.839Z,7.25
2018-11-14T16:54:58.696Z,7.17
2018-11-14T16:57:26.141Z,7.20
2018-11-14T16:59:53.343Z,7.17
2018-11-14T17:02:20.264Z,7.28
2018-11-14T17:04:47.150Z,7.40
2018-11-14T17:07:14.029Z,7.40
2018-11-14T17:09:40.890Z,7.37
2018-11-14T17:12:07.816Z,7.34
2018-11-14T17:14:34.701Z,7.24
2018-11-14T17:17:01.580Z,7.19
2018-11-14T17:19:28.467Z,7.18
2018-11-14T17:21:55.376Z,7.17
2018-11-14T17:24:22.256Z,7.28
2018-11-14T17:26:49.111Z,7.27
2018-11-14T17:29:16.011Z,7.18
2018-11-14T17:31:42.919Z,7.15
2018-11-14T17:34:09.842Z,7.17
2018-11-14T17:36:36.767Z,7.26
2018-11-14T17:39:07.148Z,7.25
2018-11-14T17:41:34.036Z,7.29
2018-11-14T17:44:01.268Z,7.23
2018-11-14T17:46:28.279Z,7.14
2018-11-14T17:48:55.764Z,7.07
2018-11-14T17:51:22.840Z,7.17
2018-11-14T17:53:54.632Z,7.24
2018-11-14T17:56:21.923Z,7.31
2018-11-14T17:58:48.775Z,7.39
2018-11-14T18:01:16.257Z,7.45
2018-11-14T18:03:43.656Z,7.50
2018-11-14T18:06:12.593Z,7.61
2018-11-14T18:08:39.652Z,7.50
2018-11-14T18:11:08.272Z,7.60
2018-11-14T18:13:35.691Z,7.63
2018-11-14T18:16:02.696Z,7.51
2018-11-14T18:18:30.167Z,7.48
2018-11-14T18:20:57.143Z,7.53
2018-11-14T18:23:24.066Z,7.57
2018-11-14T18:25:50.995Z,7.48
2018-11-14T18:28:18.505Z,7.57
2018-11-14T18:30:45.764Z,7.54
2018-11-14T18:33:12.643Z,7.56
2018-11-14T18:35:39.595Z,7.65
2018-11-14T18:38:06.568Z,7.62
2018-11-14T18:40:34.375Z,7.64
2018-11-14T18:43:01.314Z,7.67
2018-11-14T18:45:29.548Z,7.62
2018-11-14T18:47:57.195Z,7.59
2018-11-14T18:50:26.442Z,7.54
2018-11-14T18:52:53.388Z,7.62
2018-11-14T18:55:21.687Z,7.66
2018-11-14T18:57:48.985Z,7.61
2018-11-14T19:00:18.822Z,7.59
2018-11-14T19:02:45.800Z,7.59
2018-11-14T19:05:15.359Z,7.53
2018-11-14T19:07:42.479Z,7.53
2018-11-14T19:10:11.085Z,7.51
2018-11-14T19:12:38.377Z,7.57
2018-11-14T19:15:07.783Z,7.65
2018-11-14T19:17:38.583Z,7.82
2018-11-14T19:20:11.529Z,7.64
2018-11-14T19:22:45.569Z,7.98
2018-11-14T19:25:15.137Z,7.88
2018-11-14T19:27:42.748Z,7.90
2018-11-14T19:30:13.315Z,8.11
2018-11-14T19:32:41.436Z,7.91
2018-11-14T19:35:11.708Z,7.89
2018-11-14T19:37:40.097Z,7.84
2018-11-14T19:40:12.827Z,7.86
2018-11-14T19:42:40.371Z,7.81
2018-11-14T19:45:21.875Z,7.79
2018-11-14T19:47:49.717Z,7.98
2018-11-14T19:50:18.200Z,7.83
2018-11-14T19:52:45.806Z,7.82
2018-11-14T19:55:15.520Z,7.89
2018-11-14T19:57:44.830Z,7.72
2018-11-14T20:00:16.554Z,7.62
2018-11-14T20:02:43.903Z,7.45
2018-11-14T20:05:12.640Z,7.52
2018-11-14T20:07:40.825Z,7.48
2018-11-14T20:10:11.954Z,7.35
2018-11-14T20:12:39.078Z,7.55
2018-11-14T20:15:08.373Z,7.45
2018-11-14T20:17:35.649Z,7.92
2018-11-14T20:20:03.943Z,7.82
2018-11-14T20:22:31.076Z,7.54
2018-11-14T20:24:58.112Z,7.40
2018-11-14T20:27:25.159Z,7.23
2018-11-14T20:29:52.296Z,7.22
2018-11-14T20:32:19.403Z,7.30
2018-11-14T20:34:46.520Z,7.42
2018-11-14T20:37:14.105Z,7.55
2018-11-14T20:39:41.917Z,7.55
2018-11-14T20:42:09.811Z,7.46
2018-11-14T20:44:36.855Z,7.51
2018-11-14T20:47:04.799Z,7.50
2018-11-14T20:49:31.812Z,7.50
2018-11-14T20:51:58.867Z,7.58
2018-11-14T20:54:26.034Z,7.53
2018-11-14T20:56:53.103Z,7.34
2018-11-14T20:59:20.195Z,7.29
2018-11-14T21:01:47.188Z,7.15
2018-11-14T21:04:14.194Z,7.21
2018-11-14T21:06:41.165Z,7.45
2018-11-14T21:09:09.624Z,7.22
2018-11-14T21:11:36.676Z,7.43
2018-11-14T21:14:04.759Z,7.29
2018-11-14T21:16:31.667Z,7.53
2018-11-14T21:18:58.526Z,7.59
2018-11-14T21:21:25.473Z,7.35
2018-11-14T21:23:52.339Z,7.33
2018-11-14T21:26:19.332Z,7.32
2018-11-14T21:28:46.211Z,7.42
2018-11-14T21:31:13.092Z,7.20
2018-11-14T21:33:39.980Z,7.08
2018-11-14T21:36:06.875Z,6.87
2018-11-14T21:38:33.758Z,6.84
2018-11-14T21:41:00.644Z,6.81
2018-11-14T21:43:27.537Z,6.93
2018-11-14T21:45:54.444Z,7.05
2018-11-14T21:48:21.336Z,7.11
2018-11-14T21:50:48.219Z,7.10
2018-11-14T21:53:15.216Z,6.79
2018-11-14T21:55:41.974Z,6.68
2018-11-14T21:58:08.931Z,6.51
2018-11-14T22:00:37.110Z,6.46
2018-11-14T22:03:04.450Z,6.46
2018-11-14T22:05:31.539Z,6.42
2018-11-14T22:07:58.456Z,6.42
2018-11-14T22:10:25.843Z,6.45
2018-11-14T22:12:52.863Z,6.38
2018-11-14T22:15:21.017Z,6.27
2018-11-14T22:17:48.021Z,6.33
2018-11-14T22:20:16.116Z,6.26
2018-11-14T22:22:43.646Z,6.26
2018-11-14T22:25:11.556Z,6.20
2018-11-14T22:27:38.529Z,6.19
2018-11-14T22:30:09.454Z,6.20
2018-11-14T22:32:36.324Z,6.20
2018-11-14T22:35:03.433Z,6.34
2018-11-14T22:37:30.292Z,6.38
2018-11-14T22:39:57.152Z,6.22
2018-11-14T22:42:24.059Z,6.27
2018-11-14T22:44:51.423Z,6.15
2018-11-14T22:47:18.283Z,6.40
2018-11-14T22:49:45.186Z,6.27
2018-11-14T22:52:12.056Z,6.36
2018-11-14T22:54:38.925Z,6.35
2018-11-14T22:57:05.812Z,6.30
2018-11-14T22:59:32.676Z,6.17
2018-11-14T23:01:59.545Z,6.12
2018-11-14T23:04:26.407Z,6.14
2018-11-14T23:06:53.279Z,6.08
2018-11-14T23:09:20.140Z,6.08
2018-11-14T23:11:47.012Z,6.07
2018-11-14T23:14:13.892Z,6.12
2018-11-14T23:16:40.757Z,6.15
2018-11-14T23:19:11.066Z,6.10
2018-11-14T23:21:37.939Z,6.05
2018-11-14T23:24:05.159Z,6.12
2018-11-14T23:26:32.046Z,6.06
2018-11-14T23:28:59.148Z,6.09
2018-11-14T23:31:26.015Z,6.13
2018-11-14T23:33:52.913Z,6.12
2018-11-14T23:36:19.823Z,6.16
2018-11-14T23:38:46.684Z,6.16
2018-11-14T23:41:13.593Z,6.05
2018-11-14T23:43:40.473Z,6.13
2018-11-14T23:46:07.339Z,6.11
2018-11-14T23:48:34.225Z,6.07
2018-11-14T23:51:01.111Z,6.16
2018-11-14T23:53:27.971Z,6.16
2018-11-14T23:55:54.859Z,6.15
2018-11-14T23:58:21.728Z,6.22
